createdAt,value
2023-09-04T00:02:11.174Z,1.40
2023-09-04T00:04:38.216Z,2.00
2023-09-04T00:07:05.208Z,1.90
2023-09-04T00:09:32.268Z,2.00
2023-09-04T00:11:59.302Z,1.85
2023-09-04T00:14:26.256Z,1.90
2023-09-04T00:16:53.262Z,1.90
2023-09-04T00:19:20.242Z,2.10
2023-09-04T00:21:47.248Z,2.10
2023-09-04T00:24:14.172Z,2.20
2023-09-04T00:26:41.148Z,2.38
2023-09-04T00:29:08.101Z,2.25
2023-09-04T00:31:35.783Z,2.40
2023-09-04T00:34:03.478Z,2.45
2023-09-04T00:36:30.440Z,2.30
2023-09-04T00:38:57.437Z,2.40
2023-09-04T00:41:24.419Z,2.30
2023-09-04T00:43:51.349Z,2.55
2023-09-04T00:46:19.577Z,2.17
2023-09-04T00:48:47.607Z,2.30
2023-09-04T00:51:14.790Z,2.40
2023-09-04T00:53:42.899Z,2.10
2023-09-04T00:56:13.545Z,2.20
2023-09-04T00:58:40.595Z,2.42
2023-09-04T01:01:07.856Z,2.60
2023-09-04T01:03:34.930Z,2.70
2023-09-04T01:06:03.158Z,2.50
2023-09-04T01:08:30.216Z,2.28
2023-09-04T01:11:06.211Z,2.33
2023-09-04T01:13:48.151Z,2.60
2023-09-04T01:16:17.853Z,2.60
2023-09-04T01:18:45.856Z,2.50
2023-09-04T01:21:12.972Z,2.80
2023-09-04T01:23:39.977Z,2.78
2023-09-04T01:26:14.143Z,3.00
2023-09-04T01:28:49.209Z,2.80
2023-09-04T01:31:27.976Z,2.83
2023-09-04T01:34:26.232Z,2.63
2023-09-04T01:36:54.301Z,2.70
2023-09-04T01:39:25.543Z,2.70
2023-09-04T01:41:52.577Z,2.70
2023-09-04T01:44:20.571Z,2.50
2023-09-04T01:46:47.671Z,2.28
2023-09-04T01:49:14.665Z,2.40
2023-09-04T01:51:41.419Z,2.20
2023-09-04T01:54:09.001Z,2.20
2023-09-04T01:56:35.873Z,2.38
2023-09-04T01:59:02.656Z,2.40
2023-09-04T02:01:30.024Z,2.45
2023-09-04T02:03:59.108Z,2.50
2023-09-04T02:06:30.216Z,2.35
2023-09-04T02:08:57.634Z,2.78
2023-09-04T02:11:24.885Z,2.60
2023-09-04T02:13:51.790Z,2.40
2023-09-04T02:16:18.646Z,2.30
2023-09-04T02:18:45.527Z,2.20
2023-09-04T02:21:12.277Z,2.97
2023-09-04T02:23:39.261Z,2.60
2023-09-04T02:26:06.011Z,2.60
2023-09-04T02:28:32.857Z,2.55
2023-09-04T02:31:05.002Z,2.50
2023-09-04T02:33:31.811Z,2.40
2023-09-04T02:35:58.637Z,2.50
2023-09-04T02:38:25.983Z,2.50
2023-09-04T02:40:53.001Z,2.60
2023-09-04T02:43:19.760Z,2.55
2023-09-04T02:45:47.651Z,2.60
2023-09-04T02:48:14.743Z,2.70
2023-09-04T02:50:41.729Z,2.80
2023-09-04T02:53:08.589Z,2.40
2023-09-04T02:55:35.341Z,2.70
2023-09-04T02:58:02.507Z,2.47
2023-09-04T03:00:29.287Z,2.45
2023-09-04T03:02:56.972Z,2.20
2023-09-04T03:05:27.102Z,2.50
2023-09-04T03:07:53.942Z,2.15
2023-09-04T03:10:20.775Z,2.20
2023-09-04T03:12:47.535Z,2.10
2023-09-04T03:15:14.333Z,2.05
2023-09-04T03:17:41.113Z,1.60
2023-09-04T03:20:10.745Z,2.20
2023-09-04T03:22:38.301Z,1.90
2023-09-04T03:25:05.492Z,1.90
2023-09-04T03:27:32.211Z,1.87
2023-09-04T03:29:59.366Z,2.00
2023-09-04T03:32:26.142Z,2.10
2023-09-04T03:34:53.429Z,1.92
2023-09-04T03:37:20.189Z,2.00
2023-09-04T03:39:47.016Z,2.00
2023-09-04T03:42:13.854Z,2.00
2023-09-04T03:44:40.608Z,1.98
2023-09-04T03:47:07.429Z,2.00
2023-09-04T03:49:34.212Z,2.10
2023-09-04T03:52:00.976Z,2.10
2023-09-04T03:54:29.963Z,2.20
2023-09-04T03:56:56.898Z,2.30
2023-09-04T03:59:23.729Z,2.45
2023-09-04T04:01:50.474Z,2.50
2023-09-04T04:04:17.313Z,2.40
2023-09-04T04:06:44.163Z,3.00
2023-09-04T04:09:12.687Z,2.80
2023-09-04T04:11:39.465Z,2.50
2023-09-04T04:14:07.125Z,2.55
2023-09-04T04:16:36.286Z,2.40
2023-09-04T04:19:03.181Z,2.80
2023-09-04T04:21:30.006Z,2.80
2023-09-04T04:23:56.853Z,2.85
2023-09-04T04:26:23.690Z,2.70
2023-09-04T04:28:50.504Z,2.90
2023-09-04T04:31:17.274Z,2.60
2023-09-04T04:33:44.064Z,3.60
2023-09-04T04:36:10.800Z,3.80
2023-09-04T04:38:37.616Z,4.00
2023-09-04T04:41:04.386Z,3.97
2023-09-04T04:43:31.537Z,4.20
2023-09-04T04:45:58.406Z,4.65
2023-09-04T04:48:25.522Z,4.77
2023-09-04T04:50:55.931Z,4.70
2023-09-04T04:53:23.436Z,4.65
2023-09-04T04:55:50.218Z,4.50
2023-09-04T04:58:17.025Z,4.60
2023-09-04T05:00:43.839Z,4.50
2023-09-04T05:03:10.656Z,4.10
2023-09-04T05:05:37.481Z,4.13
2023-09-04T05:08:04.470Z,4.30
2023-09-04T05:10:31.282Z,4.33
2023-09-04T05:12:58.038Z,3.95
2023-09-04T05:15:24.985Z,4.90
2023-09-04T05:17:51.811Z,4.20
2023-09-04T05:20:18.802Z,6.63
2023-09-04T05:22:45.853Z,7.10
2023-09-04T05:25:13.590Z,6.55
2023-09-04T05:27:40.389Z,7.40
2023-09-04T05:30:07.857Z,7.20
2023-09-04T05:32:34.679Z,6.30
2023-09-04T05:35:01.548Z,6.13
2023-09-04T05:37:28.334Z,5.75
2023-09-04T05:39:55.229Z,5.78
2023-09-04T05:42:22.022Z,5.70
2023-09-04T05:44:48.901Z,5.90
2023-09-04T05:47:15.629Z,6.82
2023-09-04T05:49:42.491Z,6.43
2023-09-04T05:52:09.501Z,6.57
2023-09-04T05:54:36.317Z,6.60
2023-09-04T05:57:03.090Z,6.60
2023-09-04T05:59:29.983Z,6.28
2023-09-04T06:01:56.759Z,6.43
2023-09-04T06:04:25.307Z,6.78
2023-09-04T06:06:52.953Z,6.70
2023-09-04T06:09:20.312Z,7.20
2023-09-04T06:11:47.138Z,7.50
2023-09-04T06:14:13.992Z,7.18
2023-09-04T06:16:40.771Z,7.47
2023-09-04T06:19:07.844Z,6.40
2023-09-04T06:21:34.606Z,6.60
2023-09-04T06:24:01.454Z,6.20
2023-09-04T06:26:28.833Z,6.30
2023-09-04T06:28:55.620Z,5.80
2023-09-04T06:31:22.930Z,5.93
2023-09-04T06:33:50.195Z,6.40
2023-09-04T06:36:17.041Z,6.45
2023-09-04T06:38:43.895Z,6.10
2023-09-04T06:41:10.693Z,5.80
2023-09-04T06:43:37.564Z,7.07
2023-09-04T06:46:04.565Z,6.50
2023-09-04T06:48:31.612Z,7.40
2023-09-04T06:50:58.369Z,6.90
2023-09-04T06:53:25.150Z,6.93
2023-09-04T06:55:53.050Z,6.60
2023-09-04T06:58:19.923Z,5.95
2023-09-04T07:00:46.694Z,5.80
2023-09-04T07:03:13.642Z,6.10
2023-09-04T07:05:40.417Z,5.38
2023-09-04T07:08:07.225Z,6.05
2023-09-04T07:10:34.110Z,5.40
2023-09-04T07:13:02.609Z,5.20
2023-09-04T07:15:29.671Z,5.70
2023-09-04T07:18:00.743Z,5.38
2023-09-04T07:20:28.882Z,5.45
2023-09-04T07:23:06.261Z,5.20
2023-09-04T07:25:41.781Z,4.90
2023-09-04T07:28:08.579Z,5.32
2023-09-04T07:30:35.407Z,5.50
2023-09-04T07:33:02.272Z,5.80
2023-09-04T07:35:30.132Z,5.00
2023-09-04T07:37:57.926Z,5.30
2023-09-04T07:40:24.786Z,6.00
2023-09-04T07:42:51.523Z,5.95
2023-09-04T07:45:18.422Z,5.70
2023-09-04T07:47:45.333Z,5.70
2023-09-04T07:50:12.618Z,5.73
2023-09-04T07:52:39.440Z,5.50
2023-09-04T07:55:09.908Z,5.55
2023-09-04T07:57:37.023Z,5.85
2023-09-04T08:00:04.388Z,5.20
2023-09-04T08:02:31.221Z,5.13
2023-09-04T08:04:58.919Z,4.70
2023-09-04T08:07:25.828Z,4.70
2023-09-04T08:09:52.641Z,4.68
2023-09-04T08:12:19.459Z,5.10
2023-09-04T08:14:48.406Z,5.13
2023-09-04T08:17:15.256Z,5.13
2023-09-04T08:19:42.020Z,5.07
2023-09-04T08:22:08.758Z,5.22
2023-09-04T08:24:35.563Z,4.90
2023-09-04T08:27:02.335Z,4.85
2023-09-04T08:29:29.164Z,4.43
2023-09-04T08:31:55.996Z,5.50
2023-09-04T08:34:22.772Z,4.70
2023-09-04T08:36:49.661Z,5.28
2023-09-04T08:39:16.718Z,4.93
2023-09-04T08:41:43.774Z,4.63
2023-09-04T08:44:10.657Z,5.25
2023-09-04T08:46:39.446Z,4.90
2023-09-04T08:49:07.698Z,5.05
2023-09-04T08:51:34.458Z,4.88
2023-09-04T08:54:01.552Z,4.65
2023-09-04T08:56:30.921Z,5.50
2023-09-04T08:58:57.771Z,5.00
2023-09-04T09:01:27.709Z,4.13
2023-09-04T09:03:56.098Z,4.78
2023-09-04T09:06:23.169Z,5.10
2023-09-04T09:08:55.187Z,5.47
2023-09-04T09:11:23.823Z,4.50
2023-09-04T09:13:50.632Z,3.90
2023-09-04T09:16:21.382Z,4.00
2023-09-04T09:18:49.737Z,4.10
2023-09-04T09:21:32.209Z,4.20
2023-09-04T09:24:16.916Z,4.30
2023-09-04T09:26:50.042Z,4.72
2023-09-04T09:29:18.952Z,4.00
2023-09-04T09:31:47.169Z,4.07
2023-09-04T09:34:14.667Z,3.70
2023-09-04T09:36:41.551Z,4.22
2023-09-04T09:39:08.670Z,3.92
2023-09-04T09:41:35.926Z,3.80
2023-09-04T09:44:05.010Z,4.00
2023-09-04T09:46:35.785Z,4.10
2023-09-04T09:49:02.702Z,3.93
2023-09-04T09:51:32.314Z,4.10
2023-09-04T09:53:59.183Z,3.50
2023-09-04T09:56:26.535Z,3.70
2023-09-04T09:58:53.378Z,3.63
2023-09-04T10:01:20.600Z,3.70
2023-09-04T10:03:48.612Z,3.63
2023-09-04T10:06:24.427Z,3.80
2023-09-04T10:08:52.863Z,3.60
2023-09-04T10:11:19.924Z,3.40
2023-09-04T10:14:12.692Z,3.50
2023-09-04T10:16:56.914Z,3.70
2023-09-04T10:19:28.876Z,3.55
2023-09-04T10:22:09.672Z,3.50
2023-09-04T10:25:10.187Z,3.45
2023-09-04T10:27:45.371Z,3.08
2023-09-04T10:30:18.231Z,3.20
2023-09-04T10:32:45.281Z,3.00
2023-09-04T10:35:12.643Z,2.92
2023-09-04T10:37:39.562Z,3.10
2023-09-04T10:40:08.213Z,3.10
2023-09-04T10:42:35.431Z,2.80
2023-09-04T10:45:21.712Z,2.70
2023-09-04T10:47:51.430Z,3.10
2023-09-04T10:50:40.788Z,2.63
2023-09-04T10:53:09.536Z,3.20
2023-09-04T10:55:37.908Z,2.78
2023-09-04T10:58:07.047Z,2.92
2023-09-04T11:00:36.444Z,2.50
2023-09-04T11:03:20.490Z,2.80
2023-09-04T11:06:09.564Z,2.70
2023-09-04T11:08:40.151Z,2.80
2023-09-04T11:11:09.245Z,2.90
2023-09-04T11:13:40.973Z,2.67
2023-09-04T11:16:08.991Z,2.70
2023-09-04T11:18:36.990Z,2.70
2023-09-04T11:21:04.787Z,2.70
2023-09-04T11:23:34.888Z,2.90
2023-09-04T11:26:01.712Z,3.00
2023-09-04T11:28:28.565Z,2.80
2023-09-04T11:31:00.421Z,2.60
2023-09-04T11:33:35.525Z,2.75
2023-09-04T11:36:04.780Z,2.80
2023-09-04T11:38:33.480Z,2.60
2023-09-04T11:41:01.933Z,2.65
2023-09-04T11:43:29.215Z,2.50
2023-09-04T11:45:57.059Z,2.90
2023-09-04T11:48:28.269Z,2.78
2023-09-04T11:50:55.970Z,3.05
2023-09-04T11:53:24.214Z,2.60
2023-09-04T11:55:54.461Z,2.55
2023-09-04T11:58:22.407Z,2.60
2023-09-04T12:00:49.439Z,2.80
2023-09-04T12:03:16.366Z,2.65
2023-09-04T12:05:43.494Z,2.50
2023-09-04T12:08:10.797Z,2.50
2023-09-04T12:10:41.440Z,2.75
2023-09-04T12:13:08.219Z,2.95
2023-09-04T12:15:35.091Z,2.83
2023-09-04T12:18:06.749Z,2.70
2023-09-04T12:20:45.256Z,2.80
2023-09-04T12:23:12.084Z,2.97
2023-09-04T12:25:41.295Z,2.60
2023-09-04T12:28:10.727Z,2.78
2023-09-04T12:30:47.033Z,2.50
2023-09-04T12:33:18.231Z,2.60
2023-09-04T12:35:53.407Z,2.80
2023-09-04T12:38:20.387Z,2.92
2023-09-04T12:40:47.829Z,2.60
2023-09-04T12:43:14.781Z,2.70
2023-09-04T12:45:41.663Z,2.70
2023-09-04T12:48:18.121Z,2.72
2023-09-04T12:50:45.399Z,2.75
2023-09-04T12:53:13.839Z,2.63
2023-09-04T12:55:40.707Z,2.70
2023-09-04T12:58:10.518Z,2.70
2023-09-04T13:00:38.483Z,2.58
2023-09-04T13:03:08.689Z,2.40
2023-09-04T13:05:35.575Z,2.80
2023-09-04T13:08:02.469Z,2.70
2023-09-04T13:10:29.282Z,2.65
2023-09-04T13:12:56.099Z,2.90
2023-09-04T13:15:23.097Z,2.42
2023-09-04T13:17:49.838Z,3.00
2023-09-04T13:20:16.684Z,2.60
2023-09-04T13:22:47.451Z,2.75
2023-09-04T13:25:14.497Z,2.60
2023-09-04T13:27:41.632Z,2.80
2023-09-04T13:30:12.018Z,2.60
2023-09-04T13:32:39.082Z,2.67
2023-09-04T13:35:08.670Z,2.70
2023-09-04T13:37:37.509Z,2.55
2023-09-04T13:40:05.447Z,2.53
2023-09-04T13:42:32.635Z,2.50
2023-09-04T13:44:59.571Z,2.70
2023-09-04T13:47:27.420Z,2.72
2023-09-04T13:49:55.881Z,2.60
2023-09-04T13:52:26.011Z,2.80
2023-09-04T13:54:56.369Z,2.60
2023-09-04T13:57:25.101Z,2.70
2023-09-04T13:59:52.196Z,2.70
2023-09-04T14:02:19.147Z,2.50
2023-09-04T14:04:46.090Z,2.90
2023-09-04T14:07:13.004Z,2.55
2023-09-04T14:09:39.896Z,2.50
2023-09-04T14:12:07.406Z,2.85
2023-09-04T14:14:34.356Z,2.47
2023-09-04T14:17:01.242Z,2.20
2023-09-04T14:19:28.110Z,2.40
2023-09-04T14:21:55.260Z,2.50
2023-09-04T14:24:22.720Z,2.55
2023-09-04T14:26:52.668Z,2.50
2023-09-04T14:29:19.591Z,2.50
2023-09-04T14:31:46.945Z,2.30
2023-09-04T14:34:14.024Z,2.55
2023-09-04T14:36:45.321Z,2.53
2023-09-04T14:39:21.042Z,2.25
2023-09-04T14:41:48.196Z,2.40
2023-09-04T14:44:14.971Z,2.50
2023-09-04T14:46:41.876Z,2.50
2023-09-04T14:49:09.323Z,2.50
2023-09-04T14:51:36.156Z,2.50
2023-09-04T14:54:04.060Z,2.40
2023-09-04T14:56:30.875Z,2.30
2023-09-04T14:58:59.747Z,2.70
2023-09-04T15:01:26.873Z,2.50
2023-09-04T15:03:53.886Z,2.70
2023-09-04T15:06:20.767Z,2.50
2023-09-04T15:08:48.773Z,2.37
2023-09-04T15:11:17.787Z,2.38
2023-09-04T15:13:45.585Z,2.30
2023-09-04T15:16:12.550Z,2.60
2023-09-04T15:18:39.915Z,2.60
2023-09-04T15:21:07.383Z,2.38
2023-09-04T15:23:35.180Z,2.33
2023-09-04T15:26:02.762Z,2.30
2023-09-04T15:28:30.792Z,2.40
2023-09-04T15:30:58.749Z,2.40
2023-09-04T15:33:29.562Z,2.72
2023-09-04T15:36:02.230Z,2.17
2023-09-04T15:38:30.639Z,2.43
2023-09-04T15:40:57.409Z,2.37
2023-09-04T15:43:24.876Z,2.60
2023-09-04T15:45:53.079Z,2.30
2023-09-04T15:48:21.014Z,2.20
2023-09-04T15:50:48.845Z,2.20
2023-09-04T15:53:16.344Z,2.40
2023-09-04T15:55:43.187Z,2.50
2023-09-04T15:58:09.992Z,2.20
2023-09-04T16:00:37.184Z,2.33
2023-09-04T16:03:04.765Z,2.40
2023-09-04T16:05:31.876Z,2.40
2023-09-04T16:07:58.721Z,2.53
2023-09-04T16:10:25.554Z,2.70
2023-09-04T16:12:52.365Z,2.50
2023-09-04T16:15:20.148Z,2.30
2023-09-04T16:17:48.347Z,2.50
2023-09-04T16:20:15.340Z,2.15
2023-09-04T16:22:42.264Z,2.35
2023-09-04T16:25:09.394Z,2.45
2023-09-04T16:27:36.318Z,2.13
2023-09-04T16:30:05.377Z,2.40
2023-09-04T16:32:32.217Z,2.20
2023-09-04T16:34:58.989Z,2.60
2023-09-04T16:37:25.777Z,2.70
2023-09-04T16:39:52.534Z,2.33
2023-09-04T16:42:19.325Z,2.55
2023-09-04T16:44:46.167Z,2.50
2023-09-04T16:47:13.018Z,2.67
2023-09-04T16:49:39.796Z,2.47
2023-09-04T16:52:07.122Z,2.60
2023-09-04T16:54:33.946Z,2.60
2023-09-04T16:57:00.799Z,2.50
2023-09-04T16:59:27.676Z,2.30
2023-09-04T17:01:54.490Z,2.50
2023-09-04T17:04:21.365Z,2.10
2023-09-04T17:06:48.512Z,2.70
2023-09-04T17:09:15.337Z,2.70
2023-09-04T17:11:42.062Z,2.70
2023-09-04T17:14:08.982Z,2.67
2023-09-04T17:16:35.980Z,2.47
2023-09-04T17:19:02.811Z,1.40
2023-09-04T17:21:29.595Z,1.20
2023-09-04T17:23:56.525Z,1.17
2023-09-04T17:26:23.361Z,1.05
2023-09-04T17:28:50.140Z,1.20
2023-09-04T17:31:17.009Z,1.10
2023-09-04T17:33:44.393Z,1.20
2023-09-04T17:36:11.208Z,1.20
2023-09-04T17:38:38.242Z,1.60
2023-09-04T17:41:09.190Z,1.50
2023-09-04T17:43:36.508Z,1.88
2023-09-04T17:46:04.045Z,1.70
2023-09-04T17:48:31.978Z,1.60
2023-09-04T17:51:01.002Z,1.40
2023-09-04T17:53:28.258Z,1.90
2023-09-04T17:55:55.162Z,2.40
2023-09-04T17:58:22.158Z,2.20
2023-09-04T18:00:48.969Z,1.60
2023-09-04T18:03:15.996Z,1.95
2023-09-04T18:05:43.596Z,1.80
2023-09-04T18:08:10.607Z,2.00
2023-09-04T18:10:37.925Z,1.77
2023-09-04T18:13:05.049Z,2.00
2023-09-04T18:15:31.948Z,2.00
2023-09-04T18:17:58.846Z,1.90
2023-09-04T18:20:25.767Z,2.08
2023-09-04T18:22:52.566Z,1.95
2023-09-04T18:25:19.790Z,1.80
2023-09-04T18:27:46.756Z,1.80
2023-09-04T18:30:17.056Z,2.08
2023-09-04T18:32:43.970Z,2.00
2023-09-04T18:35:11.701Z,2.10
2023-09-04T18:37:38.601Z,2.10
2023-09-04T18:40:05.881Z,2.00
2023-09-04T18:42:32.768Z,1.90
2023-09-04T18:44:59.600Z,2.10
2023-09-04T18:47:26.550Z,2.28
2023-09-04T18:49:53.361Z,2.40
2023-09-04T18:52:21.001Z,2.55
2023-09-04T18:54:48.367Z,2.20
2023-09-04T18:57:18.316Z,1.98
2023-09-04T18:59:45.180Z,1.70
2023-09-04T19:02:13.810Z,2.10
2023-09-04T19:04:40.620Z,2.00
2023-09-04T19:07:07.423Z,2.20
2023-09-04T19:09:34.276Z,1.80
2023-09-04T19:12:01.814Z,2.20
2023-09-04T19:14:29.423Z,2.00
2023-09-04T19:16:56.409Z,2.10
2023-09-04T19:19:23.580Z,1.90
2023-09-04T19:21:50.537Z,2.00
2023-09-04T19:24:17.285Z,2.15
2023-09-04T19:26:44.586Z,2.20
2023-09-04T19:29:11.617Z,2.00
2023-09-04T19:31:38.665Z,1.60
2023-09-04T19:34:05.519Z,1.60
2023-09-04T19:36:32.383Z,1.80
2023-09-04T19:38:59.142Z,1.83
2023-09-04T19:41:25.989Z,1.92
2023-09-04T19:43:53.833Z,1.73
2023-09-04T19:46:21.074Z,2.10
2023-09-04T19:48:47.893Z,2.08
2023-09-04T19:51:15.109Z,1.80
2023-09-04T19:53:41.920Z,1.67
2023-09-04T19:56:08.840Z,2.15
2023-09-04T19:58:35.610Z,2.17
2023-09-04T20:01:06.170Z,2.05
2023-09-04T20:03:34.842Z,2.10
2023-09-04T20:06:02.048Z,2.00
2023-09-04T20:08:28.806Z,2.22
2023-09-04T20:10:55.580Z,1.90
2023-09-04T20:13:25.701Z,1.95
2023-09-04T20:15:53.339Z,1.90
2023-09-04T20:18:20.241Z,2.10
2023-09-04T20:20:47.123Z,2.10
2023-09-04T20:23:13.886Z,2.00
2023-09-04T20:25:40.682Z,2.28
2023-09-04T20:28:07.579Z,2.10
2023-09-04T20:30:34.405Z,2.03
2023-09-04T20:33:01.402Z,2.10
2023-09-04T20:35:28.260Z,2.07
2023-09-04T20:37:56.003Z,1.85
2023-09-04T20:40:26.088Z,2.60
2023-09-04T20:42:53.006Z,2.22
2023-09-04T20:45:19.776Z,1.90
2023-09-04T20:47:46.574Z,2.20
2023-09-04T20:50:13.405Z,2.30
2023-09-04T20:52:40.382Z,2.45
2023-09-04T20:55:07.380Z,2.30
2023-09-04T20:57:34.127Z,2.20
2023-09-04T21:00:00.934Z,2.20
2023-09-04T21:02:27.775Z,2.10
2023-09-04T21:04:54.938Z,2.30
2023-09-04T21:07:21.632Z,2.30
2023-09-04T21:09:48.399Z,2.30
2023-09-04T21:12:33.587Z,2.30
2023-09-04T21:15:19.050Z,2.20
2023-09-04T21:18:04.444Z,2.22
2023-09-04T21:20:50.030Z,2.30
2023-09-04T21:23:35.574Z,2.10
2023-09-04T21:26:21.212Z,2.10
2023-09-04T21:29:06.559Z,2.38
2023-09-04T21:31:51.931Z,2.08
2023-09-04T21:34:38.025Z,2.30
2023-09-04T21:37:23.569Z,2.42
2023-09-04T21:40:08.923Z,2.10
2023-09-04T21:42:54.605Z,2.40
2023-09-04T21:45:40.026Z,2.50
2023-09-04T21:48:25.465Z,2.00
2023-09-04T21:51:11.039Z,2.40
2023-09-04T21:53:56.384Z,2.35
2023-09-04T21:56:41.812Z,2.20
2023-09-04T21:59:27.258Z,2.30
2023-09-04T22:02:12.897Z,2.40
2023-09-04T22:05:00.040Z,2.03
2023-09-04T22:07:45.712Z,2.30
2023-09-04T22:10:31.332Z,2.00
2023-09-04T22:13:16.897Z,2.30
2023-09-04T22:16:03.854Z,2.30
2023-09-04T22:18:49.822Z,2.45
2023-09-04T22:21:35.239Z,2.20
2023-09-04T22:24:20.857Z,2.05
2023-09-04T22:27:06.341Z,1.90
2023-09-04T22:29:53.552Z,2.00
2023-09-04T22:32:39.783Z,2.00
2023-09-04T22:35:25.621Z,2.20
2023-09-04T22:38:11.079Z,2.00
2023-09-04T22:40:56.456Z,1.80
2023-09-04T22:43:42.034Z,1.70
2023-09-04T22:46:27.647Z,2.20
2023-09-04T22:49:13.230Z,2.13
2023-09-04T22:51:58.843Z,2.10
2023-09-04T22:54:44.455Z,1.97
2023-09-04T22:57:29.996Z,2.00
2023-09-04T23:00:15.691Z,1.80
2023-09-04T23:03:01.334Z,2.00
2023-09-04T23:05:46.804Z,2.03
2023-09-04T23:08:32.155Z,1.90
2023-09-04T23:11:17.704Z,1.63
2023-09-04T23:14:03.529Z,1.50
2023-09-04T23:16:51.061Z,2.10
2023-09-04T23:19:37.068Z,1.70
2023-09-04T23:22:05.158Z,1.70
2023-09-04T23:24:32.908Z,1.70
2023-09-04T23:27:00.660Z,1.80
2023-09-04T23:29:28.425Z,1.60
2023-09-04T23:32:10.504Z,2.00
2023-09-04T23:34:38.301Z,1.83
2023-09-04T23:37:14.063Z,2.00
2023-09-04T23:40:01.094Z,1.58
2023-09-04T23:42:53.696Z,1.73
2023-09-04T23:45:21.190Z,1.70
2023-09-04T23:47:51.985Z,1.80
2023-09-04T23:50:24.185Z,1.80
2023-09-04T23:52:55.519Z,1.70
2023-09-04T23:55:24.637Z,1.80
2023-09-04T23:57:51.824Z,1.75
